Knickerbocker — WDC7987 — position and weather

sailwx.info

Track history (hours):
 
Tides and Currents Weather Stations Pressure Air Temp Water Temp Dewpoint Dewpoint Depression Visibility Wind Speed Wind Dir Waves Ship Positions

Knickerbocker

Owner: Christopher Corp., Newport, RI. More information available from US FCC via Universal Licensing System and Coast Guard Vessel Documentation Center.

Last reported at 2014-Dec-03 14:33 UTC. Time now 2014-Dec-20 15:03 UTC.
Position N 39°05' W 071°03'.
Warning: this ship's position is 17 days out of date.

Length 36 m; draft 3.6 m.

Type: Other ship. MMSI: 367079960.

Date/timePositionNaut miles runAvg speedWind from/ knotsBaromVisibWave heightAir tempDewpointWater temp
2014-Dec-03 14:33N 39°05' W 071°03'9 8.6
2014-Dec-03 13:32N 39°14' W 071°07'10 9.3
2014-Dec-03 12:27N 39°23' W 071°11'9 8.5
2014-Dec-03 11:23N 39°31' W 071°17'8 8.9
2014-Dec-03 10:31N 39°37' W 071°22'9 9.0
2014-Dec-03 09:31N 39°45' W 071°28'25 7.7
2014-Dec-03 06:18N 39°59' W 071°55'4 4.7
2014-Dec-03 05:24N 40°03' W 071°55'8 8.3
2014-Dec-03 04:27N 40°10' W 071°52'9 9.7
2014-Dec-03 03:33N 40°18' W 071°48'1010.4
2014-Dec-03 02:33N 40°28' W 071°43'1110.7
2014-Dec-03 01:33N 40°38' W 071°38'1110.7
2014-Dec-03 00:33N 40°48' W 071°32'1110.6
2014-Dec-02 23:33N 40°58' W 071°27'1010.1
2014-Dec-02 22:33N 41°08' W 071°25'1110.9
2014-Dec-02 21:33N 41°18' W 071°22'10 9.6
2014-Dec-02 20:33N 41°28' W 071°22'2 1.8
2014-Dec-02 19:33N 41°29' W 071°20'1 0.9
2014-Dec-02 18:31N 41°29' W 071°19'0 0.0
2014-Dec-02 17:31N 41°29' W 071°19'0 0.0
2014-Dec-02 16:31N 41°29' W 071°19'0 0.0
2014-Dec-02 15:31N 41°29' W 071°19'0 0.0
2014-Dec-02 14:31N 41°29' W 071°19'0 0.0
2014-Dec-02 13:31N 41°29' W 071°19'0 0.0
2014-Dec-02 12:31N 41°29' W 071°19'0 0.0
2014-Dec-02 11:28N 41°29' W 071°19'0 0.0
2014-Dec-02 10:31N 41°29' W 071°19'0 0.0
2014-Dec-02 09:31N 41°29' W 071°19'0 0.0
2014-Dec-02 08:31N 41°29' W 071°19'0 0.0
2014-Dec-02 07:28N 41°29' W 071°19'0 0.0
2014-Dec-02 06:28N 41°29' W 071°19'0 0.0
2014-Dec-02 05:31N 41°29' W 071°19'0 0.0
2014-Dec-02 04:31N 41°29' W 071°19'0 0.0
2014-Dec-02 03:28N 41°29' W 071°19'0 0.0
2014-Dec-02 02:31N 41°29' W 071°19'0 0.0
2014-Dec-02 01:31N 41°29' W 071°19'0 0.0
2014-Dec-02 00:31N 41°29' W 071°19'0 0.0
2014-Dec-01 23:31N 41°29' W 071°19'0 0.0
2014-Dec-01 22:31N 41°29' W 071°19'0 0.0
2014-Dec-01 21:31N 41°29' W 071°19'0 0.0
2014-Dec-01 20:31N 41°29' W 071°19'0 0.0
2014-Dec-01 19:11N 41°29' W 071°19'0 0.0
2014-Dec-01 18:09N 41°29' W 071°19'0 0.0
2014-Dec-01 17:33N 41°29' W 071°19'0 0.0
2014-Dec-01 16:31N 41°29' W 071°19'0 0.0
2014-Dec-01 15:31N 41°29' W 071°19'0 0.0
2014-Dec-01 14:31N 41°29' W 071°19'0 0.0
2014-Dec-01 13:31N 41°29' W 071°19'0 0.0
2014-Dec-01 12:31N 41°29' W 071°19'0 0.0
2014-Dec-01 11:31N 41°29' W 071°19'0 0.0
2014-Dec-01 10:31N 41°29' W 071°19'0 0.0
2014-Dec-01 09:31N 41°29' W 071°19'0 0.0
2014-Dec-01 08:31N 41°29' W 071°19'0 0.0
2014-Dec-01 07:31N 41°29' W 071°19'0 0.0
2014-Dec-01 06:31N 41°29' W 071°19'0 0.0
2014-Dec-01 05:31N 41°29' W 071°19'0 0.0
2014-Dec-01 04:28N 41°29' W 071°19'0 0.0
2014-Dec-01 03:31N 41°29' W 071°19'0 0.0
2014-Dec-01 02:31N 41°29' W 071°19'0 0.0
2014-Dec-01 01:31N 41°29' W 071°19'0 0.0
2014-Dec-01 00:28N 41°29' W 071°19'0 0.0
2014-Nov-30 23:28N 41°29' W 071°19'0 0.0
2014-Nov-30 22:28N 41°29' W 071°19'0 0.0
2014-Nov-30 21:31N 41°29' W 071°19'0 0.0
2014-Nov-30 20:31N 41°29' W 071°19'0 0.0
2014-Nov-30 19:31N 41°29' W 071°19'0 0.0
2014-Nov-30 18:31N 41°29' W 071°19'0 0.0
2014-Nov-30 17:31N 41°29' W 071°19'0 0.0
2014-Nov-30 16:31N 41°29' W 071°19'0 0.0
2014-Nov-30 15:31N 41°29' W 071°19'0 0.0
2014-Nov-30 14:31N 41°29' W 071°19'0 0.0
2014-Nov-30 13:31N 41°29' W 071°19'0 0.0
2014-Nov-30 12:31N 41°29' W 071°19'0 0.0
2014-Nov-30 11:31N 41°29' W 071°19'0 0.0
2014-Nov-30 10:31N 41°29' W 071°19'0 0.0
2014-Nov-30 09:31N 41°29' W 071°19'0 0.0
2014-Nov-30 08:31N 41°29' W 071°19'0 0.0
2014-Nov-30 07:31N 41°29' W 071°19'0 0.0
2014-Nov-30 06:31N 41°29' W 071°19'0 0.0
2014-Nov-30 05:31N 41°29' W 071°19'0 0.0
2014-Nov-30 04:31N 41°29' W 071°19'0 0.0
2014-Nov-30 03:31N 41°29' W 071°19'0 0.0
2014-Nov-30 02:31N 41°29' W 071°19'0 0.0
2014-Nov-30 01:31N 41°29' W 071°19'0 0.0
2014-Nov-30 00:31N 41°29' W 071°19'0 0.0
2014-Nov-29 23:31N 41°29' W 071°19'0 0.0
2014-Nov-29 22:31N 41°29' W 071°19'0 0.0
2014-Nov-29 21:31N 41°29' W 071°19'0 0.0
2014-Nov-29 20:31N 41°29' W 071°19'0 0.0
2014-Nov-29 19:31N 41°29' W 071°19'0 0.0
2014-Nov-29 18:31N 41°29' W 071°19'0 0.0
2014-Nov-29 17:31N 41°29' W 071°19'0 0.0
2014-Nov-29 16:31N 41°29' W 071°19'0 0.0
2014-Nov-29 15:31N 41°29' W 071°19'0 0.0
2014-Nov-29 14:22N 41°29' W 071°19'0 0.0
2014-Nov-29 13:31N 41°29' W 071°19'0 0.0
2014-Nov-29 12:31N 41°29' W 071°19'0 0.0
2014-Nov-29 11:31N 41°29' W 071°19'0 0.0
2014-Nov-29 10:31N 41°29' W 071°19'0 0.0
2014-Nov-29 09:31N 41°29' W 071°19'0 0.0
2014-Nov-29 08:31N 41°29' W 071°19'0 0.0
2014-Nov-29 07:31N 41°29' W 071°19'0 0.0
2014-Nov-29 06:31N 41°29' W 071°19'0 0.0
2014-Nov-29 05:31N 41°29' W 071°19'0 0.0
2014-Nov-29 04:31N 41°29' W 071°19'0 0.0
2014-Nov-29 03:31N 41°29' W 071°19'0 0.0
2014-Nov-29 02:31N 41°29' W 071°19'0 0.0
2014-Nov-29 01:31N 41°29' W 071°19'0 0.0
2014-Nov-29 00:31N 41°29' W 071°19'0 0.0
2014-Nov-28 23:31N 41°29' W 071°19'0 0.0
2014-Nov-28 22:31N 41°29' W 071°19'0 0.0
2014-Nov-28 21:31N 41°29' W 071°19'0 0.0
2014-Nov-28 20:31N 41°29' W 071°19'0 0.0
2014-Nov-28 19:28N 41°29' W 071°19'0 0.0
2014-Nov-28 18:31N 41°29' W 071°19'0 0.0
2014-Nov-28 17:31N 41°29' W 071°19'0 0.0
2014-Nov-28 16:31N 41°29' W 071°19'0 0.0
2014-Nov-28 15:31N 41°29' W 071°19'0 0.0
2014-Nov-28 14:31N 41°29' W 071°19'0 0.0
2014-Nov-28 13:31N 41°29' W 071°19'0 0.0
2014-Nov-28 12:31N 41°29' W 071°19'0 0.0
2014-Nov-28 11:31N 41°29' W 071°19'0 0.0
2014-Nov-28 10:31N 41°29' W 071°19'0 0.0
2014-Nov-28 09:31N 41°29' W 071°19'0 0.0
2014-Nov-28 08:31N 41°29' W 071°19'0 0.0
2014-Nov-28 07:31N 41°29' W 071°19'0 0.0
2014-Nov-28 06:31N 41°29' W 071°19'0 0.0
2014-Nov-28 05:31N 41°29' W 071°19'0 0.0
2014-Nov-28 04:31N 41°29' W 071°19'0 0.0
2014-Nov-28 03:31N 41°29' W 071°19'0 0.0
2014-Nov-28 02:31N 41°29' W 071°19'0 0.0
2014-Nov-28 01:31N 41°29' W 071°19'0 0.0
2014-Nov-28 00:31N 41°29' W 071°19'0 0.0
2014-Nov-27 23:31N 41°29' W 071°19'0 0.0
2014-Nov-27 22:31N 41°29' W 071°19'0 0.0
2014-Nov-27 21:31N 41°29' W 071°19'0 0.0
2014-Nov-27 20:31N 41°29' W 071°19'0 0.0
2014-Nov-27 19:31N 41°29' W 071°19'0 0.0
2014-Nov-27 18:31N 41°29' W 071°19'0 0.0
2014-Nov-27 17:31N 41°29' W 071°19'0 0.0
2014-Nov-27 16:31N 41°29' W 071°19'0 0.0
2014-Nov-27 15:31N 41°29' W 071°19'0 0.0
2014-Nov-27 14:31N 41°29' W 071°19'0 0.0
2014-Nov-27 13:31N 41°29' W 071°19'0 0.0
2014-Nov-27 12:28N 41°29' W 071°19'0 0.0
2014-Nov-27 11:31N 41°29' W 071°19'0 0.0
2014-Nov-27 10:31N 41°29' W 071°19'0 0.0
2014-Nov-27 09:31N 41°29' W 071°19'0 0.0
2014-Nov-27 08:31N 41°29' W 071°19'0 0.0
2014-Nov-27 07:31N 41°29' W 071°19'0 0.0
2014-Nov-27 06:28N 41°29' W 071°19'0 0.0
2014-Nov-27 05:31N 41°29' W 071°19'0 0.0
2014-Nov-27 04:31N 41°29' W 071°19'0 0.0
2014-Nov-27 03:28N 41°29' W 071°19'0 0.0
2014-Nov-27 02:31N 41°29' W 071°19'0 0.0
2014-Nov-27 01:31N 41°29' W 071°19'0 0.0
2014-Nov-27 00:31N 41°29' W 071°19'0 0.0
2014-Nov-26 23:31N 41°29' W 071°19'0 0.0
2014-Nov-26 22:28N 41°29' W 071°19'0 0.0
2014-Nov-26 21:31N 41°29' W 071°19'0 0.0
2014-Nov-26 20:31N 41°29' W 071°19'0 0.0
2014-Nov-26 19:31N 41°29' W 071°19'0 0.0
2014-Nov-26 18:31N 41°29' W 071°19'0 0.0
2014-Nov-26 17:31N 41°29' W 071°19'0 0.0
2014-Nov-26 16:31N 41°29' W 071°19'0 0.0
2014-Nov-26 15:31N 41°29' W 071°19'0 0.0
2014-Nov-26 14:31N 41°29' W 071°19'0 0.0
2014-Nov-26 13:31N 41°29' W 071°19'0 0.0
2014-Nov-26 12:31N 41°29' W 071°19'0 0.0
2014-Nov-26 11:16N 41°29' W 071°19'0 0.0
2014-Nov-26 10:28N 41°29' W 071°19'0 0.0
2014-Nov-26 09:28N 41°29' W 071°19'0 0.0
2014-Nov-26 08:28N 41°29' W 071°19'0 0.0
2014-Nov-26 07:28N 41°29' W 071°19'0 0.0
2014-Nov-26 06:22N 41°29' W 071°19'0 0.0
2014-Nov-26 05:28N 41°29' W 071°19'0 0.0
2014-Nov-26 04:22N 41°29' W 071°19'0 0.0
2014-Nov-26 03:28N 41°29' W 071°19'0 0.0
2014-Nov-26 02:28N 41°29' W 071°19'0 0.0
2014-Nov-26 01:28N 41°29' W 071°19'0 0.0
2014-Nov-26 00:28N 41°29' W 071°19'0 0.0
2014-Nov-25 23:22N 41°29' W 071°19'0 0.0
2014-Nov-25 22:19N 41°29' W 071°19'0 0.0
2014-Nov-25 21:28N 41°29' W 071°19'0 0.0
2014-Nov-25 20:31N 41°29' W 071°19'0 0.0
2014-Nov-25 19:31N 41°29' W 071°19'0 0.0
2014-Nov-25 18:31N 41°29' W 071°19'0 0.0
2014-Nov-25 17:31N 41°29' W 071°19'0 0.0
2014-Nov-25 16:31N 41°29' W 071°19'0 0.0
2014-Nov-25 15:31N 41°29' W 071°19'0 0.0
2014-Nov-25 14:31N 41°29' W 071°19'0 0.0
2014-Nov-25 13:31N 41°29' W 071°19'0 0.0
2014-Nov-25 12:28N 41°29' W 071°19'0 0.0
2014-Nov-25 11:28N 41°29' W 071°19'0 0.0
2014-Nov-25 10:31N 41°29' W 071°19'0 0.0
2014-Nov-25 09:31N 41°29' W 071°19'0 0.0
2014-Nov-25 08:31N 41°29' W 071°19'0 0.0
2014-Nov-25 07:31N 41°29' W 071°19'0 0.0
2014-Nov-25 06:28N 41°29' W 071°19'0 0.0
2014-Nov-25 05:31N 41°29' W 071°19'0 0.0
2014-Nov-25 04:28N 41°29' W 071°19'0 0.0
2014-Nov-25 03:28N 41°29' W 071°19'0 0.0
2014-Nov-25 02:31N 41°29' W 071°19'0 0.0
2014-Nov-25 01:31N 41°29' W 071°19'0 0.0
2014-Nov-25 00:31N 41°29' W 071°19'0 0.0
2014-Nov-24 23:31N 41°29' W 071°19'0 0.0
2014-Nov-24 22:31N 41°29' W 071°19'0 0.0
2014-Nov-24 21:31N 41°29' W 071°19'0 0.0
2014-Nov-24 20:25N 41°29' W 071°19'0 0.0
2014-Nov-24 19:28N 41°29' W 071°19'0 0.0
2014-Nov-24 18:31N 41°29' W 071°19'0 0.0
2014-Nov-24 17:31N 41°29' W 071°19'0 0.0
2014-Nov-24 16:31N 41°29' W 071°19'0 0.0
2014-Nov-24 15:28N 41°29' W 071°19'0 0.0
2014-Nov-24 14:31N 41°29' W 071°19'0 0.0
2014-Nov-24 13:34N 41°29' W 071°19'0 0.0
2014-Nov-24 12:31N 41°29' W 071°19'0 0.0
2014-Nov-24 11:31N 41°29' W 071°19'0 0.0
2014-Nov-24 10:34N 41°29' W 071°19'0 0.0
2014-Nov-24 09:31N 41°29' W 071°19'0 0.0
2014-Nov-24 08:31N 41°29' W 071°19'0 0.0
2014-Nov-24 07:34N 41°29' W 071°19'0 0.0
2014-Nov-24 06:34N 41°29' W 071°19'0 0.0
2014-Nov-24 05:34N 41°29' W 071°19'0 0.0
2014-Nov-24 04:31N 41°29' W 071°19'0 0.0
2014-Nov-24 03:34N 41°29' W 071°19'0 0.0
2014-Nov-24 02:34N 41°29' W 071°19'0 0.0
2014-Nov-24 01:34N 41°29' W 071°19'0 0.0
2014-Nov-24 00:31N 41°29' W 071°19'0 0.0
2014-Nov-23 23:34N 41°29' W 071°19'0 0.0
2014-Nov-23 22:34N 41°29' W 071°19'0 0.0
2014-Nov-23 21:34N 41°29' W 071°19'0 0.0
2014-Nov-23 20:34N 41°29' W 071°19'0 0.0
2014-Nov-23 19:34N 41°29' W 071°19'0 0.0
2014-Nov-23 18:34N 41°29' W 071°19'0 0.0
2014-Nov-23 17:34N 41°29' W 071°19'0 0.0
2014-Nov-23 16:34N 41°29' W 071°19'0 0.0
2014-Nov-23 15:28N 41°29' W 071°19'0 0.0
2014-Nov-23 14:34N 41°29' W 071°19'  
Track history (hours):
 
Tides and Currents Weather Stations Pressure Air Temp Water Temp Dewpoint Dewpoint Depression Visibility Wind Speed Wind Dir Waves Ship Positions

Knickerbocker

Owner: Christopher Corp., Newport, RI. More information available from US FCC via Universal Licensing System and Coast Guard Vessel Documentation Center.

Last reported at 2014-Dec-03 14:33 UTC. Time now 2014-Dec-20 15:03 UTC.
Position N 39°05' W 071°03'.
Warning: this ship's position is 17 days out of date.

Length 36 m; draft 3.6 m.

Type: Other ship. MMSI: 367079960.

Date/timePositionNaut miles runAvg speedWind from/ knotsBaromVisibWave heightAir tempDewpointWater temp
2014-Dec-03 14:33N 39°05' W 071°03'9 8.6
2014-Dec-03 13:32N 39°14' W 071°07'10 9.3
2014-Dec-03 12:27N 39°23' W 071°11'9 8.5
2014-Dec-03 11:23N 39°31' W 071°17'8 8.9
2014-Dec-03 10:31N 39°37' W 071°22'9 9.0
2014-Dec-03 09:31N 39°45' W 071°28'25 7.7
2014-Dec-03 06:18N 39°59' W 071°55'4 4.7
2014-Dec-03 05:24N 40°03' W 071°55'8 8.3
2014-Dec-03 04:27N 40°10' W 071°52'9 9.7
2014-Dec-03 03:33N 40°18' W 071°48'1010.4
2014-Dec-03 02:33N 40°28' W 071°43'1110.7
2014-Dec-03 01:33N 40°38' W 071°38'1110.7
2014-Dec-03 00:33N 40°48' W 071°32'1110.6
2014-Dec-02 23:33N 40°58' W 071°27'1010.1
2014-Dec-02 22:33N 41°08' W 071°25'1110.9
2014-Dec-02 21:33N 41°18' W 071°22'10 9.6
2014-Dec-02 20:33N 41°28' W 071°22'2 1.8
2014-Dec-02 19:33N 41°29' W 071°20'1 0.9
2014-Dec-02 18:31N 41°29' W 071°19'0 0.0
2014-Dec-02 17:31N 41°29' W 071°19'0 0.0
2014-Dec-02 16:31N 41°29' W 071°19'0 0.0
2014-Dec-02 15:31N 41°29' W 071°19'0 0.0
2014-Dec-02 14:31N 41°29' W 071°19'0 0.0
2014-Dec-02 13:31N 41°29' W 071°19'0 0.0
2014-Dec-02 12:31N 41°29' W 071°19'0 0.0
2014-Dec-02 11:28N 41°29' W 071°19'0 0.0
2014-Dec-02 10:31N 41°29' W 071°19'0 0.0
2014-Dec-02 09:31N 41°29' W 071°19'0 0.0
2014-Dec-02 08:31N 41°29' W 071°19'0 0.0
2014-Dec-02 07:28N 41°29' W 071°19'0 0.0
2014-Dec-02 06:28N 41°29' W 071°19'0 0.0
2014-Dec-02 05:31N 41°29' W 071°19'0 0.0
2014-Dec-02 04:31N 41°29' W 071°19'0 0.0
2014-Dec-02 03:28N 41°29' W 071°19'0 0.0
2014-Dec-02 02:31N 41°29' W 071°19'0 0.0
2014-Dec-02 01:31N 41°29' W 071°19'0 0.0
2014-Dec-02 00:31N 41°29' W 071°19'0 0.0
2014-Dec-01 23:31N 41°29' W 071°19'0 0.0
2014-Dec-01 22:31N 41°29' W 071°19'0 0.0
2014-Dec-01 21:31N 41°29' W 071°19'0 0.0
2014-Dec-01 20:31N 41°29' W 071°19'0 0.0
2014-Dec-01 19:11N 41°29' W 071°19'0 0.0
2014-Dec-01 18:09N 41°29' W 071°19'0 0.0
2014-Dec-01 17:33N 41°29' W 071°19'0 0.0
2014-Dec-01 16:31N 41°29' W 071°19'0 0.0
2014-Dec-01 15:31N 41°29' W 071°19'0 0.0
2014-Dec-01 14:31N 41°29' W 071°19'0 0.0
2014-Dec-01 13:31N 41°29' W 071°19'0 0.0
2014-Dec-01 12:31N 41°29' W 071°19'0 0.0
2014-Dec-01 11:31N 41°29' W 071°19'0 0.0
2014-Dec-01 10:31N 41°29' W 071°19'0 0.0
2014-Dec-01 09:31N 41°29' W 071°19'0 0.0
2014-Dec-01 08:31N 41°29' W 071°19'0 0.0
2014-Dec-01 07:31N 41°29' W 071°19'0 0.0
2014-Dec-01 06:31N 41°29' W 071°19'0 0.0
2014-Dec-01 05:31N 41°29' W 071°19'0 0.0
2014-Dec-01 04:28N 41°29' W 071°19'0 0.0
2014-Dec-01 03:31N 41°29' W 071°19'0 0.0
2014-Dec-01 02:31N 41°29' W 071°19'0 0.0
2014-Dec-01 01:31N 41°29' W 071°19'0 0.0
2014-Dec-01 00:28N 41°29' W 071°19'0 0.0
2014-Nov-30 23:28N 41°29' W 071°19'0 0.0
2014-Nov-30 22:28N 41°29' W 071°19'0 0.0
2014-Nov-30 21:31N 41°29' W 071°19'0 0.0
2014-Nov-30 20:31N 41°29' W 071°19'0 0.0
2014-Nov-30 19:31N 41°29' W 071°19'0 0.0
2014-Nov-30 18:31N 41°29' W 071°19'0 0.0
2014-Nov-30 17:31N 41°29' W 071°19'0 0.0
2014-Nov-30 16:31N 41°29' W 071°19'0 0.0
2014-Nov-30 15:31N 41°29' W 071°19'0 0.0
2014-Nov-30 14:31N 41°29' W 071°19'0 0.0
2014-Nov-30 13:31N 41°29' W 071°19'0 0.0
2014-Nov-30 12:31N 41°29' W 071°19'0 0.0
2014-Nov-30 11:31N 41°29' W 071°19'0 0.0
2014-Nov-30 10:31N 41°29' W 071°19'0 0.0
2014-Nov-30 09:31N 41°29' W 071°19'0 0.0
2014-Nov-30 08:31N 41°29' W 071°19'0 0.0
2014-Nov-30 07:31N 41°29' W 071°19'0 0.0
2014-Nov-30 06:31N 41°29' W 071°19'0 0.0
2014-Nov-30 05:31N 41°29' W 071°19'0 0.0
2014-Nov-30 04:31N 41°29' W 071°19'0 0.0
2014-Nov-30 03:31N 41°29' W 071°19'0 0.0
2014-Nov-30 02:31N 41°29' W 071°19'0 0.0
2014-Nov-30 01:31N 41°29' W 071°19'0 0.0
2014-Nov-30 00:31N 41°29' W 071°19'0 0.0
2014-Nov-29 23:31N 41°29' W 071°19'0 0.0
2014-Nov-29 22:31N 41°29' W 071°19'0 0.0
2014-Nov-29 21:31N 41°29' W 071°19'0 0.0
2014-Nov-29 20:31N 41°29' W 071°19'0 0.0
2014-Nov-29 19:31N 41°29' W 071°19'0 0.0
2014-Nov-29 18:31N 41°29' W 071°19'0 0.0
2014-Nov-29 17:31N 41°29' W 071°19'0 0.0
2014-Nov-29 16:31N 41°29' W 071°19'0 0.0
2014-Nov-29 15:31N 41°29' W 071°19'0 0.0
2014-Nov-29 14:22N 41°29' W 071°19'0 0.0
2014-Nov-29 13:31N 41°29' W 071°19'0 0.0
2014-Nov-29 12:31N 41°29' W 071°19'0 0.0
2014-Nov-29 11:31N 41°29' W 071°19'0 0.0
2014-Nov-29 10:31N 41°29' W 071°19'0 0.0
2014-Nov-29 09:31N 41°29' W 071°19'0 0.0
2014-Nov-29 08:31N 41°29' W 071°19'0 0.0
2014-Nov-29 07:31N 41°29' W 071°19'0 0.0
2014-Nov-29 06:31N 41°29' W 071°19'0 0.0
2014-Nov-29 05:31N 41°29' W 071°19'0 0.0
2014-Nov-29 04:31N 41°29' W 071°19'0 0.0
2014-Nov-29 03:31N 41°29' W 071°19'0 0.0
2014-Nov-29 02:31N 41°29' W 071°19'0 0.0
2014-Nov-29 01:31N 41°29' W 071°19'0 0.0
2014-Nov-29 00:31N 41°29' W 071°19'0 0.0
2014-Nov-28 23:31N 41°29' W 071°19'0 0.0
2014-Nov-28 22:31N 41°29' W 071°19'0 0.0
2014-Nov-28 21:31N 41°29' W 071°19'0 0.0
2014-Nov-28 20:31N 41°29' W 071°19'0 0.0
2014-Nov-28 19:28N 41°29' W 071°19'0 0.0
2014-Nov-28 18:31N 41°29' W 071°19'0 0.0
2014-Nov-28 17:31N 41°29' W 071°19'0 0.0
2014-Nov-28 16:31N 41°29' W 071°19'0 0.0
2014-Nov-28 15:31N 41°29' W 071°19'0 0.0
2014-Nov-28 14:31N 41°29' W 071°19'0 0.0
2014-Nov-28 13:31N 41°29' W 071°19'0 0.0
2014-Nov-28 12:31N 41°29' W 071°19'0 0.0
2014-Nov-28 11:31N 41°29' W 071°19'0 0.0
2014-Nov-28 10:31N 41°29' W 071°19'0 0.0
2014-Nov-28 09:31N 41°29' W 071°19'0 0.0
2014-Nov-28 08:31N 41°29' W 071°19'0 0.0
2014-Nov-28 07:31N 41°29' W 071°19'0 0.0
2014-Nov-28 06:31N 41°29' W 071°19'0 0.0
2014-Nov-28 05:31N 41°29' W 071°19'0 0.0
2014-Nov-28 04:31N 41°29' W 071°19'0 0.0
2014-Nov-28 03:31N 41°29' W 071°19'0 0.0
2014-Nov-28 02:31N 41°29' W 071°19'0 0.0
2014-Nov-28 01:31N 41°29' W 071°19'0 0.0
2014-Nov-28 00:31N 41°29' W 071°19'0 0.0
2014-Nov-27 23:31N 41°29' W 071°19'0 0.0
2014-Nov-27 22:31N 41°29' W 071°19'0 0.0
2014-Nov-27 21:31N 41°29' W 071°19'0 0.0
2014-Nov-27 20:31N 41°29' W 071°19'0 0.0
2014-Nov-27 19:31N 41°29' W 071°19'0 0.0
2014-Nov-27 18:31N 41°29' W 071°19'0 0.0
2014-Nov-27 17:31N 41°29' W 071°19'0 0.0
2014-Nov-27 16:31N 41°29' W 071°19'0 0.0
2014-Nov-27 15:31N 41°29' W 071°19'0 0.0
2014-Nov-27 14:31N 41°29' W 071°19'0 0.0
2014-Nov-27 13:31N 41°29' W 071°19'0 0.0
2014-Nov-27 12:28N 41°29' W 071°19'0 0.0
2014-Nov-27 11:31N 41°29' W 071°19'0 0.0
2014-Nov-27 10:31N 41°29' W 071°19'0 0.0
2014-Nov-27 09:31N 41°29' W 071°19'0 0.0
2014-Nov-27 08:31N 41°29' W 071°19'0 0.0
2014-Nov-27 07:31N 41°29' W 071°19'0 0.0
2014-Nov-27 06:28N 41°29' W 071°19'0 0.0
2014-Nov-27 05:31N 41°29' W 071°19'0 0.0
2014-Nov-27 04:31N 41°29' W 071°19'0 0.0
2014-Nov-27 03:28N 41°29' W 071°19'0 0.0
2014-Nov-27 02:31N 41°29' W 071°19'0 0.0
2014-Nov-27 01:31N 41°29' W 071°19'0 0.0
2014-Nov-27 00:31N 41°29' W 071°19'0 0.0
2014-Nov-26 23:31N 41°29' W 071°19'0 0.0
2014-Nov-26 22:28N 41°29' W 071°19'0 0.0
2014-Nov-26 21:31N 41°29' W 071°19'0 0.0
2014-Nov-26 20:31N 41°29' W 071°19'0 0.0
2014-Nov-26 19:31N 41°29' W 071°19'0 0.0
2014-Nov-26 18:31N 41°29' W 071°19'0 0.0
2014-Nov-26 17:31N 41°29' W 071°19'0 0.0
2014-Nov-26 16:31N 41°29' W 071°19'0 0.0
2014-Nov-26 15:31N 41°29' W 071°19'0 0.0
2014-Nov-26 14:31N 41°29' W 071°19'0 0.0
2014-Nov-26 13:31N 41°29' W 071°19'0 0.0
2014-Nov-26 12:31N 41°29' W 071°19'0 0.0
2014-Nov-26 11:16N 41°29' W 071°19'0 0.0
2014-Nov-26 10:28N 41°29' W 071°19'0 0.0
2014-Nov-26 09:28N 41°29' W 071°19'0 0.0
2014-Nov-26 08:28N 41°29' W 071°19'0 0.0
2014-Nov-26 07:28N 41°29' W 071°19'0 0.0
2014-Nov-26 06:22N 41°29' W 071°19'0 0.0
2014-Nov-26 05:28N 41°29' W 071°19'0 0.0
2014-Nov-26 04:22N 41°29' W 071°19'0 0.0
2014-Nov-26 03:28N 41°29' W 071°19'0 0.0
2014-Nov-26 02:28N 41°29' W 071°19'0 0.0
2014-Nov-26 01:28N 41°29' W 071°19'0 0.0
2014-Nov-26 00:28N 41°29' W 071°19'0 0.0
2014-Nov-25 23:22N 41°29' W 071°19'0 0.0
2014-Nov-25 22:19N 41°29' W 071°19'0 0.0
2014-Nov-25 21:28N 41°29' W 071°19'0 0.0
2014-Nov-25 20:31N 41°29' W 071°19'0 0.0
2014-Nov-25 19:31N 41°29' W 071°19'0 0.0
2014-Nov-25 18:31N 41°29' W 071°19'0 0.0
2014-Nov-25 17:31N 41°29' W 071°19'0 0.0
2014-Nov-25 16:31N 41°29' W 071°19'0 0.0
2014-Nov-25 15:31N 41°29' W 071°19'0 0.0
2014-Nov-25 14:31N 41°29' W 071°19'0 0.0
2014-Nov-25 13:31N 41°29' W 071°19'0 0.0
2014-Nov-25 12:28N 41°29' W 071°19'0 0.0
2014-Nov-25 11:28N 41°29' W 071°19'0 0.0
2014-Nov-25 10:31N 41°29' W 071°19'0 0.0
2014-Nov-25 09:31N 41°29' W 071°19'0 0.0
2014-Nov-25 08:31N 41°29' W 071°19'0 0.0
2014-Nov-25 07:31N 41°29' W 071°19'0 0.0
2014-Nov-25 06:28N 41°29' W 071°19'0 0.0
2014-Nov-25 05:31N 41°29' W 071°19'0 0.0
2014-Nov-25 04:28N 41°29' W 071°19'0 0.0
2014-Nov-25 03:28N 41°29' W 071°19'0 0.0
2014-Nov-25 02:31N 41°29' W 071°19'0 0.0
2014-Nov-25 01:31N 41°29' W 071°19'0 0.0
2014-Nov-25 00:31N 41°29' W 071°19'0 0.0
2014-Nov-24 23:31N 41°29' W 071°19'0 0.0
2014-Nov-24 22:31N 41°29' W 071°19'0 0.0
2014-Nov-24 21:31N 41°29' W 071°19'0 0.0
2014-Nov-24 20:25N 41°29' W 071°19'0 0.0
2014-Nov-24 19:28N 41°29' W 071°19'0 0.0
2014-Nov-24 18:31N 41°29' W 071°19'0 0.0
2014-Nov-24 17:31N 41°29' W 071°19'0 0.0
2014-Nov-24 16:31N 41°29' W 071°19'0 0.0
2014-Nov-24 15:28N 41°29' W 071°19'0 0.0
2014-Nov-24 14:31N 41°29' W 071°19'0 0.0
2014-Nov-24 13:34N 41°29' W 071°19'0 0.0
2014-Nov-24 12:31N 41°29' W 071°19'0 0.0
2014-Nov-24 11:31N 41°29' W 071°19'0 0.0
2014-Nov-24 10:34N 41°29' W 071°19'0 0.0
2014-Nov-24 09:31N 41°29' W 071°19'0 0.0
2014-Nov-24 08:31N 41°29' W 071°19'0 0.0
2014-Nov-24 07:34N 41°29' W 071°19'0 0.0
2014-Nov-24 06:34N 41°29' W 071°19'0 0.0
2014-Nov-24 05:34N 41°29' W 071°19'0 0.0
2014-Nov-24 04:31N 41°29' W 071°19'0 0.0
2014-Nov-24 03:34N 41°29' W 071°19'0 0.0
2014-Nov-24 02:34N 41°29' W 071°19'0 0.0
2014-Nov-24 01:34N 41°29' W 071°19'0 0.0
2014-Nov-24 00:31N 41°29' W 071°19'0 0.0
2014-Nov-23 23:34N 41°29' W 071°19'0 0.0
2014-Nov-23 22:34N 41°29' W 071°19'0 0.0
2014-Nov-23 21:34N 41°29' W 071°19'0 0.0
2014-Nov-23 20:34N 41°29' W 071°19'0 0.0
2014-Nov-23 19:34N 41°29' W 071°19'0 0.0
2014-Nov-23 18:34N 41°29' W 071°19'0 0.0
2014-Nov-23 17:34N 41°29' W 071°19'0 0.0
2014-Nov-23 16:34N 41°29' W 071°19'0 0.0
2014-Nov-23 15:28N 41°29' W 071°19'0 0.0
2014-Nov-23 14:34N 41°29' W 071°19'  

Dump ship's entire track history